Kerrville, TX

7:13 AM CST on December 18, 2014 (GMT -0600)
Kerrville Municipal-Schreiner | Change Station
CLOSE
Current Station
Airport
Location: Kerrville,
Elevation: 1617 ft
Nearby Weather Stations

Elev 1617 ft 29.98 °N, 99.09 °W | Updated 18 minutes ago

Fog
Fog
54 °F
Feels Like 54 °F
N
0
Wind Variable Wind from North

Today
High -- | Low -- °F
--% Chance of Precip.
Yesterday
High -- | Low -- °F
Precip. -- in
7:26 AM 5:39 PM
Waning Crescent, 14% visible
Pressure 30.11 in
Visibility 1.0 miles
Clouds Overcast 100 ft
Dew Point 53 °F
Humidity 97%
Rainfall 0.00 in
Snow Depth Not available.
UV 0 out of 12
Pollen 7.40 out of 12
Air Quality Not available.
Flu Activity Not available.
METAR KERV 181255Z AUTO 00000KT 1SM BR OVC001 12/12 A3011 RMK AO2 T01200115

More Conditions Fewer Conditions

Pressure 30.11 in
Visibility 1.0 miles
Clouds Overcast 100 ft
Dew Point 53 °F
Humidity 97%
Rainfall 0.00 in
Snow Depth Not available.
UV 0 out of 12
Pollen 7.40 out of 12
Air Quality Not available.
Flu Activity Not available.
METAR KERV 181255Z AUTO 00000KT 1SM BR OVC001 12/12 A3011 RMK AO2 T01200115

More Conditions Fewer Conditions

Nowcast | as of 6:59 am CST on December 18, 2014

Through 9 am...patchy light drizzle will continue across south central Texas with little or no measurable rainfall expected. Areas of fog will continue with visibilities generally 1/2 to 2 miles. Some locations will see visibilities of 1/4 mile or less. Motorists should exercise caution and slow down in areas of fog as visibilities may drop rapidly.

×

10-Day Weather Forecast

Almanac

Astronomy

Dec. 18, 2014 Rise Set
Actual Time
Civil Twilight
Nautical Twilight
Astronomical Twilight
Moon
Length of Visible Light
Length of Day
Tomorrow will be .
, % of the Moon is Illuminated

Today's Extremes

State Highs State Lows

Community

WunderPhotos

Upload Photos

1,778,925 photos uploaded!

WunderBlogs® & News

Nearby

Air Quality

  Air Quality AQ Index Pollutant
Not available.

Snow Depth

Station Depth Elevation

Earthquake Activity

City Distance Mag. Time & Date
Minimum magnitude displayed is 2.5.

Coastal Water Temperatures

Place Temperature

Nearby Weather Stations